x

Monterey - 27nm Wnw Of Monterey, Ca (46042) Wave Buoy

11:50pm - Sun 7th Feb 2016 All times are PST. -8 hours from GMT.

  • Sig Wave height 6.6ft
  • Swell Direction
  • Peak Period 13s
  • Average Period 8s
  • Wind
    9mph, 13mph gusts
  • Sea Temp 56°f
  • Air Temp 60°f
  • Sea Pressure 1021.1mb
  • Monterey - 27nm Wnw Of Monterey, Ca
  • Monterey - 27nm Wnw Of Monterey, Ca

More Historic Weather Station data

Upgrade to MSW Pro to gain access to the past 30 days of data for over 8000 Wavebouys and Weather Stations around the globe.

Join Pro

Comparision Forecast

View Surf forecast
   
Sun 02/07 11:50pm 6.5ft 13s 8s 9 13 mph 1021.1mb 56f 60f
10:50pm 6.5ft 13s 8s 7
mph
1021.7mb 56f 57f
9:50pm 6ft 11s 8s 9 11 mph 1021.4mb 56f 58f
8:50pm 5.5ft 12s 8s 9 13 mph 1021.7mb 56f 59f
7:50pm 5.5ft 12s 8s 9
mph
1021.4mb 56f 58f
6:50pm 5.5ft 12s 8s 13 16 mph 1021.2mb 57f 58f
5:50pm 5.5ft 13s 8s 13
mph
1021mb 57f 58f
4:50pm 5ft 12s 8s 11 13 mph 1020.8mb 57f 59f
3:50pm 6ft 12s 8s 7 9 mph 1020.9mb 58f 58f
2:50pm 6ft 13s 8s 2
mph
1021.2mb 58f 59f
1:50pm 6.5ft 13s 8s 2 4 mph 1021.6mb 57f 58f
12:50pm 6.5ft 13s 8s 4
mph
1022.5mb 57f 58f
11:50am 6ft 13s 8s 2 4 mph 1023.5mb 57f 58f
10:50am 7.5ft 13s 9s 2 4 mph 1024mb 56f 58f
9:50am 8ft 13s 9s 2 4 mph 1024.2mb 56f 57f
8:50am 7ft 13s 9s 7 9 mph 1024.4mb 56f 58f
7:50am 8ft 12s 9s 4 7 mph 1024.3mb 56f 57f
6:50am 7ft 12s 9s 4 7 mph 1023.9mb 56f 56f
5:50am 8ft 13s 9s 7 9 mph 1024.1mb 56f 57f
4:50am 7ft 12s 9s 7
mph
1024.2mb 56f 56f
3:50am 8ft 11s 9s 4 7 mph 1024.6mb 56f 56f
2:50am 7.5ft 13s 9s 9
mph
1024.8mb 56f 56f
1:50am 7ft 12s 9s 7 9 mph 1025.1mb 56f 56f
12:50am 7ft 13s 8s 9 11 mph 1025.7mb 56f 56f
Sat 02/06 11:50pm 7.5ft 12s 7s 16 18 mph 1025.6mb 56f 57f
10:50pm 7ft 13s 8s 20 22 mph 1025.7mb 56f 58f
9:50pm 7.5ft 13s 7s 18 25 mph 1025.4mb 56f 58f
8:50pm 8ft 13s 8s 22 25 mph 1025.1mb 56f 57f
7:50pm 8ft 13s 8s 18 20 mph 1024.9mb 56f 58f
6:50pm 8ft 14s 8s 13 16 mph 1024.8mb 56f 58f
5:50pm 8ft 14s 8s 16 18 mph 1024.8mb 56f 58f
4:50pm 9.5ft 14s 10s 11 13 mph 1025.1mb 56f 58f
3:50pm 8.5ft 14s 10s 7 9 mph 1025.9mb 57f 57f
2:50pm 10ft 14s 10s 7 11 mph 1026mb 57f 57f
1:50pm 11ft 14s 11s 2 4 mph 1026.6mb 57f 56f
12:50pm 10ft 13s 10s  -  4 mph 1027.6mb 57f 56f
11:50am 12.5ft 13s 11s 2 7 mph 1028.6mb 56f 56f
10:50am 12ft 13s 11s 4 9 mph 1029.1mb 56f 56f
9:50am 12ft 13s 11s 7 9 mph 1028.8mb 56f 56f
8:50am 11.5ft 14s 11s 7 9 mph 1028.9mb 56f 56f
7:50am 8ft 13s 9s 7 9 mph 1028.7mb 55f 56f
6:50am 10ft 14s 10s 7 9 mph 1028.3mb 55f 55f
5:50am 9ft 14s 9s 9 11 mph 1028.1mb 55f 55f
4:50am 7.5ft 14s 9s 9 11 mph 1027.7mb 55f 56f
3:50am 8ft 14s 10s 7 9 mph 1027.8mb 55f 55f
2:50am 8ft 14s 9s 4 7 mph 1027.9mb 55f 56f
1:50am 7ft 15s 8s 7
mph
1028.5mb 55f 55f
12:50am 8.5ft 15s 8s 9 11 mph 1028.6mb 55f 56f
Fri 02/05 11:50pm 9ft 15s 8s 11 13 mph 1028.7mb 56f 56f
10:50pm 9ft 15s 9s 18 20 mph 1029.3mb 56f 56f
9:50pm 8ft 15s 8s 16 20 mph 1028.8mb 56f 56f
8:50pm 8ft 14s 9s 18 20 mph 1028.5mb 56f 56f
7:50pm 10ft 14s 11s 16 20 mph 1028.1mb 56f 56f
6:50pm 10ft 15s 11s 11 13 mph 1027.7mb 56f 56f
5:50pm 10.5ft 16s 12s 9 11 mph 1027.2mb 56f 56f
4:50pm 12ft 14s 12s 11 13 mph 1027.3mb 56f 56f
3:50pm 11ft 15s 12s 9 11 mph 1027.4mb 56f 56f
2:50pm 11ft 16s 12s 9 11 mph 1027.9mb 56f 56f
1:50pm 11.5ft 15s 12s 7 11 mph 1028.6mb 56f 56f
12:50pm 12ft 15s 12s 2 4 mph 1029mb 56f 56f
11:50am 13.5ft 15s 12s 2 4 mph 1029.7mb 56f 55f
10:50am 10.5ft 15s 11s 9 13 mph 1029.7mb 55f 55f
9:50am 12ft 15s 12s 9 13 mph 1029.3mb 55f 54f
8:50am 11ft 15s 11s 13 18 mph 1028.7mb 55f 54f
7:50am 10.5ft 14s 11s 11 13 mph 1028.8mb 55f 53f
6:50am 11.5ft 15s 12s 9 13 mph 1028.5mb 55f 54f
5:50am 12ft 16s 11s 11 16 mph 1028.4mb 55f 54f
4:50am 12ft 16s 11s 11 16 mph 1028.5mb 55f 54f
3:50am 11.5ft 16s 11s 11 16 mph 1028.3mb 55f 55f
2:50am 11.5ft 17s 11s 13 18 mph 1028.1mb 55f 55f
1:50am 13ft 17s 12s 11 13 mph 1027.7mb 55f 55f
12:50am 14ft 17s 13s 11 13 mph 1027.8mb 55f 56f
Thu 02/04 11:50pm 12ft 17s 12s 9 16 mph 1027.8mb 55f 56f
10:50pm 15.5ft 17s 13s 7 9 mph 1028mb 55f 55f
9:50pm 15ft 15s 13s 4 9 mph 1028.1mb 55f 56f
8:50pm 15.5ft 17s 14s 4 9 mph 1028mb 55f 56f
7:50pm 14ft 17s 13s 4 11 mph 1027.9mb 56f 56f
6:50pm 15.5ft 16s 14s 11 13 mph 1027.9mb 56f 56f
5:50pm 18ft 17s 15s 9 13 mph 1027.8mb 56f 55f
4:50pm 19ft 17s 15s 9 13 mph 1027.6mb 56f 56f
3:50pm 19.5ft 17s 15s 9 13 mph 1027.7mb 56f 55f
2:50pm 14ft 17s 13s 4 9 mph 1028mb 56f 55f
1:50pm 17.5ft 17s 15s 4 9 mph 1028.4mb 56f 55f
12:50pm 19.5ft 17s 15s 7 11 mph 1029.1mb 56f 55f
11:50am 16ft 19s 14s 9 13 mph 1029.9mb 55f 54f
10:50am 14ft 19s 14s 9 11 mph 1030.4mb 55f 53f
9:50am 14ft 19s 13s 9 13 mph 1030.2mb 55f 53f
8:50am 16ft 19s 14s 9 13 mph 1030.1mb 55f 53f